sensor_id;sensor_type;location;lat;lon;timestamp;P1;durP1;ratioP1;P2;durP2;ratioP2
62832;SDS011;48891;49.220;6.920;2023-10-19T00:02:16;9.80;;;7.72;;
62832;SDS011;48891;49.220;6.920;2023-10-19T00:04:41;10.75;;;8.15;;
62832;SDS011;48891;49.220;6.920;2023-10-19T00:07:06;10.57;;;8.23;;
62832;SDS011;48891;49.220;6.920;2023-10-19T00:09:32;10.77;;;8.40;;
62832;SDS011;48891;49.220;6.920;2023-10-19T00:11:57;9.30;;;7.72;;
62832;SDS011;48891;49.220;6.920;2023-10-19T00:14:22;9.77;;;7.80;;
62832;SDS011;48891;49.220;6.920;2023-10-19T00:16:47;11.45;;;8.30;;
62832;SDS011;48891;49.220;6.920;2023-10-19T00:19:13;9.38;;;7.53;;
62832;SDS011;48891;49.220;6.920;2023-10-19T00:21:38;9.93;;;8.30;;
62832;SDS011;48891;49.220;6.920;2023-10-19T00:24:03;11.30;;;8.35;;
62832;SDS011;48891;49.220;6.920;2023-10-19T00:26:29;9.90;;;7.80;;
62832;SDS011;48891;49.220;6.920;2023-10-19T00:28:54;8.80;;;7.40;;
62832;SDS011;48891;49.220;6.920;2023-10-19T00:31:20;8.90;;;7.65;;
62832;SDS011;48891;49.220;6.920;2023-10-19T00:33:45;9.93;;;8.63;;
62832;SDS011;48891;49.220;6.920;2023-10-19T00:36:11;9.77;;;8.13;;
62832;SDS011;48891;49.220;6.920;2023-10-19T00:38:37;10.27;;;8.07;;
62832;SDS011;48891;49.220;6.920;2023-10-19T00:41:03;9.25;;;7.57;;
62832;SDS011;48891;49.220;6.920;2023-10-19T00:43:33;9.48;;;7.80;;
62832;SDS011;48891;49.220;6.920;2023-10-19T00:45:59;9.35;;;7.75;;
62832;SDS011;48891;49.220;6.920;2023-10-19T00:48:25;9.63;;;7.55;;
62832;SDS011;48891;49.220;6.920;2023-10-19T00:50:52;9.55;;;8.10;;
62832;SDS011;48891;49.220;6.920;2023-10-19T00:53:18;9.63;;;7.65;;
62832;SDS011;48891;49.220;6.920;2023-10-19T00:55:44;9.50;;;7.85;;
62832;SDS011;48891;49.220;6.920;2023-10-19T00:58:10;10.88;;;8.15;;
62832;SDS011;48891;49.220;6.920;2023-10-19T01:00:36;10.57;;;8.27;;
62832;SDS011;48891;49.220;6.920;2023-10-19T01:03:02;9.80;;;8.27;;
62832;SDS011;48891;49.220;6.920;2023-10-19T01:05:28;9.35;;;7.75;;
62832;SDS011;48891;49.220;6.920;2023-10-19T01:07:53;8.90;;;7.93;;
62832;SDS011;48891;49.220;6.920;2023-10-19T01:10:18;9.95;;;7.72;;
62832;SDS011;48891;49.220;6.920;2023-10-19T01:12:44;10.82;;;7.85;;
62832;SDS011;48891;49.220;6.920;2023-10-19T01:15:10;10.65;;;8.20;;
62832;SDS011;48891;49.220;6.920;2023-10-19T01:17:37;10.23;;;8.43;;
62832;SDS011;48891;49.220;6.920;2023-10-19T01:20:02;9.25;;;7.30;;
62832;SDS011;48891;49.220;6.920;2023-10-19T01:22:27;8.95;;;6.78;;
62832;SDS011;48891;49.220;6.920;2023-10-19T01:24:53;9.18;;;7.65;;
62832;SDS011;48891;49.220;6.920;2023-10-19T01:27:18;9.48;;;7.80;;
62832;SDS011;48891;49.220;6.920;2023-10-19T01:29:43;8.80;;;7.50;;
62832;SDS011;48891;49.220;6.920;2023-10-19T01:32:08;9.82;;;7.43;;
62832;SDS011;48891;49.220;6.920;2023-10-19T01:34:35;9.02;;;7.40;;
62832;SDS011;48891;49.220;6.920;2023-10-19T01:37:00;10.00;;;8.35;;
62832;SDS011;48891;49.220;6.920;2023-10-19T01:39:26;10.20;;;8.13;;
62832;SDS011;48891;49.220;6.920;2023-10-19T01:41:51;10.77;;;8.65;;
62832;SDS011;48891;49.220;6.920;2023-10-19T01:44:16;9.43;;;7.53;;
62832;SDS011;48891;49.220;6.920;2023-10-19T01:46:42;10.05;;;7.80;;
62832;SDS011;48891;49.220;6.920;2023-10-19T01:49:07;8.27;;;7.20;;
62832;SDS011;48891;49.220;6.920;2023-10-19T01:51:33;9.05;;;7.57;;
62832;SDS011;48891;49.220;6.920;2023-10-19T01:53:59;9.25;;;7.72;;
62832;SDS011;48891;49.220;6.920;2023-10-19T01:56:25;9.25;;;7.97;;
62832;SDS011;48891;49.220;6.920;2023-10-19T01:58:50;8.70;;;7.50;;
62832;SDS011;48891;49.220;6.920;2023-10-19T02:01:16;10.50;;;7.78;;
62832;SDS011;48891;49.220;6.920;2023-10-19T02:03:41;8.68;;;7.13;;
62832;SDS011;48891;49.220;6.920;2023-10-19T02:06:10;9.77;;;6.97;;
62832;SDS011;48891;49.220;6.920;2023-10-19T02:08:37;10.63;;;8.07;;
62832;SDS011;48891;49.220;6.920;2023-10-19T02:11:02;8.45;;;7.18;;
62832;SDS011;48891;49.220;6.920;2023-10-19T02:13:27;10.15;;;7.55;;
62832;SDS011;48891;49.220;6.920;2023-10-19T02:15:52;10.30;;;7.82;;
62832;SDS011;48891;49.220;6.920;2023-10-19T02:18:18;9.68;;;7.75;;
62832;SDS011;48891;49.220;6.920;2023-10-19T02:20:43;9.23;;;7.20;;
62832;SDS011;48891;49.220;6.920;2023-10-19T02:23:08;10.20;;;7.95;;
62832;SDS011;48891;49.220;6.920;2023-10-19T02:25:34;8.57;;;7.50;;
62832;SDS011;48891;49.220;6.920;2023-10-19T02:27:59;10.45;;;7.90;;
62832;SDS011;48891;49.220;6.920;2023-10-19T02:30:24;9.82;;;7.75;;
62832;SDS011;48891;49.220;6.920;2023-10-19T02:32:49;9.85;;;7.47;;
62832;SDS011;48891;49.220;6.920;2023-10-19T02:35:15;9.70;;;7.80;;
62832;SDS011;48891;49.220;6.920;2023-10-19T02:37:40;9.02;;;7.45;;
62832;SDS011;48891;49.220;6.920;2023-10-19T02:40:05;8.50;;;7.05;;
62832;SDS011;48891;49.220;6.920;2023-10-19T02:42:31;10.07;;;7.63;;
62832;SDS011;48891;49.220;6.920;2023-10-19T02:44:56;10.60;;;7.65;;
62832;SDS011;48891;49.220;6.920;2023-10-19T02:47:22;9.25;;;7.07;;
62832;SDS011;48891;49.220;6.920;2023-10-19T02:49:47;8.57;;;7.55;;
62832;SDS011;48891;49.220;6.920;2023-10-19T02:52:12;8.75;;;7.00;;
62832;SDS011;48891;49.220;6.920;2023-10-19T02:54:37;9.05;;;7.00;;
62832;SDS011;48891;49.220;6.920;2023-10-19T02:57:03;8.60;;;7.10;;
62832;SDS011;48891;49.220;6.920;2023-10-19T02:59:28;8.68;;;7.15;;
62832;SDS011;48891;49.220;6.920;2023-10-19T03:01:55;10.40;;;7.65;;
62832;SDS011;48891;49.220;6.920;2023-10-19T03:04:22;9.00;;;7.30;;
62832;SDS011;48891;49.220;6.920;2023-10-19T03:06:48;8.65;;;6.80;;
62832;SDS011;48891;49.220;6.920;2023-10-19T03:09:13;8.82;;;7.45;;
62832;SDS011;48891;49.220;6.920;2023-10-19T03:11:42;8.70;;;6.85;;
62832;SDS011;48891;49.220;6.920;2023-10-19T03:14:08;9.07;;;7.40;;
62832;SDS011;48891;49.220;6.920;2023-10-19T03:16:37;9.65;;;7.25;;
62832;SDS011;48891;49.220;6.920;2023-10-19T03:19:03;8.57;;;7.35;;
62832;SDS011;48891;49.220;6.920;2023-10-19T03:21:28;9.00;;;7.05;;
62832;SDS011;48891;49.220;6.920;2023-10-19T03:23:54;8.98;;;7.22;;
62832;SDS011;48891;49.220;6.920;2023-10-19T03:26:19;9.57;;;7.32;;
62832;SDS011;48891;49.220;6.920;2023-10-19T03:28:45;9.40;;;7.35;;
62832;SDS011;48891;49.220;6.920;2023-10-19T03:31:10;9.18;;;7.38;;
62832;SDS011;48891;49.220;6.920;2023-10-19T03:33:35;8.27;;;6.32;;
62832;SDS011;48891;49.220;6.920;2023-10-19T03:36:01;8.55;;;7.47;;
62832;SDS011;48891;49.220;6.920;2023-10-19T03:38:27;8.80;;;7.13;;
62832;SDS011;48891;49.220;6.920;2023-10-19T03:40:52;9.05;;;7.22;;
62832;SDS011;48891;49.220;6.920;2023-10-19T03:43:18;8.27;;;6.68;;
62832;SDS011;48891;49.220;6.920;2023-10-19T03:45:44;8.70;;;7.18;;
62832;SDS011;48891;49.220;6.920;2023-10-19T03:48:09;11.55;;;7.60;;
62832;SDS011;48891;49.220;6.920;2023-10-19T03:50:35;8.93;;;7.10;;
62832;SDS011;48891;49.220;6.920;2023-10-19T03:53:00;10.13;;;7.25;;
62832;SDS011;48891;49.220;6.920;2023-10-19T03:55:25;8.10;;;6.75;;
62832;SDS011;48891;49.220;6.920;2023-10-19T03:57:50;8.35;;;7.30;;
62832;SDS011;48891;49.220;6.920;2023-10-19T04:00:16;10.23;;;7.43;;
62832;SDS011;48891;49.220;6.920;2023-10-19T04:02:42;8.02;;;6.85;;
62832;SDS011;48891;49.220;6.920;2023-10-19T04:05:07;8.32;;;7.18;;
62832;SDS011;48891;49.220;6.920;2023-10-19T04:07:33;8.73;;;7.07;;
62832;SDS011;48891;49.220;6.920;2023-10-19T04:09:58;8.05;;;7.25;;
62832;SDS011;48891;49.220;6.920;2023-10-19T04:12:23;8.15;;;7.00;;
62832;SDS011;48891;49.220;6.920;2023-10-19T04:14:50;8.68;;;7.28;;
62832;SDS011;48891;49.220;6.920;2023-10-19T04:17:15;8.02;;;6.85;;
62832;SDS011;48891;49.220;6.920;2023-10-19T04:19:40;8.48;;;6.68;;
62832;SDS011;48891;49.220;6.920;2023-10-19T04:22:05;7.88;;;6.80;;
62832;SDS011;48891;49.220;6.920;2023-10-19T04:24:31;9.55;;;7.35;;
62832;SDS011;48891;49.220;6.920;2023-10-19T04:26:56;8.27;;;7.18;;
62832;SDS011;48891;49.220;6.920;2023-10-19T04:29:21;8.43;;;6.63;;
62832;SDS011;48891;49.220;6.920;2023-10-19T04:31:46;8.70;;;7.10;;
62832;SDS011;48891;49.220;6.920;2023-10-19T04:34:12;8.60;;;7.30;;
62832;SDS011;48891;49.220;6.920;2023-10-19T04:36:37;8.50;;;6.68;;
62832;SDS011;48891;49.220;6.920;2023-10-19T04:39:02;8.32;;;6.88;;
62832;SDS011;48891;49.220;6.920;2023-10-19T04:41:28;9.23;;;6.80;;
62832;SDS011;48891;49.220;6.920;2023-10-19T04:43:53;9.27;;;7.35;;
62832;SDS011;48891;49.220;6.920;2023-10-19T04:46:18;9.10;;;7.00;;
62832;SDS011;48891;49.220;6.920;2023-10-19T04:48:44;8.30;;;6.97;;
62832;SDS011;48891;49.220;6.920;2023-10-19T04:51:09;8.27;;;6.93;;
62832;SDS011;48891;49.220;6.920;2023-10-19T04:53:36;8.25;;;6.93;;
62832;SDS011;48891;49.220;6.920;2023-10-19T04:56:03;8.95;;;6.95;;
62832;SDS011;48891;49.220;6.920;2023-10-19T04:58:32;8.30;;;6.88;;
62832;SDS011;48891;49.220;6.920;2023-10-19T05:00:57;8.07;;;6.95;;
62832;SDS011;48891;49.220;6.920;2023-10-19T05:03:24;8.25;;;7.10;;
62832;SDS011;48891;49.220;6.920;2023-10-19T05:05:50;8.25;;;6.45;;
62832;SDS011;48891;49.220;6.920;2023-10-19T05:08:15;8.25;;;6.80;;
62832;SDS011;48891;49.220;6.920;2023-10-19T05:10:41;8.90;;;7.15;;
62832;SDS011;48891;49.220;6.920;2023-10-19T05:13:06;8.13;;;6.78;;
62832;SDS011;48891;49.220;6.920;2023-10-19T05:15:31;9.18;;;7.10;;
62832;SDS011;48891;49.220;6.920;2023-10-19T05:17:56;8.77;;;7.00;;
62832;SDS011;48891;49.220;6.920;2023-10-19T05:20:22;9.18;;;7.07;;
62832;SDS011;48891;49.220;6.920;2023-10-19T05:22:47;8.23;;;6.85;;
62832;SDS011;48891;49.220;6.920;2023-10-19T05:25:12;8.95;;;7.40;;
62832;SDS011;48891;49.220;6.920;2023-10-19T05:27:38;9.18;;;7.28;;
62832;SDS011;48891;49.220;6.920;2023-10-19T05:30:04;9.32;;;7.18;;
62832;SDS011;48891;49.220;6.920;2023-10-19T05:32:30;8.45;;;7.35;;
62832;SDS011;48891;49.220;6.920;2023-10-19T05:34:56;8.50;;;6.63;;
62832;SDS011;48891;49.220;6.920;2023-10-19T05:37:21;8.63;;;7.10;;
62832;SDS011;48891;49.220;6.920;2023-10-19T05:39:46;8.30;;;6.90;;
62832;SDS011;48891;49.220;6.920;2023-10-19T05:42:11;8.38;;;6.97;;
62832;SDS011;48891;49.220;6.920;2023-10-19T05:44:37;9.13;;;6.88;;
62832;SDS011;48891;49.220;6.920;2023-10-19T05:47:02;9.73;;;7.30;;
62832;SDS011;48891;49.220;6.920;2023-10-19T05:49:27;9.65;;;6.95;;
62832;SDS011;48891;49.220;6.920;2023-10-19T05:51:53;9.35;;;7.72;;
62832;SDS011;48891;49.220;6.920;2023-10-19T05:54:18;9.43;;;7.35;;
62832;SDS011;48891;49.220;6.920;2023-10-19T05:56:43;9.63;;;7.68;;
62832;SDS011;48891;49.220;6.920;2023-10-19T05:59:08;11.15;;;7.80;;
62832;SDS011;48891;49.220;6.920;2023-10-19T06:01:34;8.85;;;7.53;;
62832;SDS011;48891;49.220;6.920;2023-10-19T06:03:59;9.13;;;7.10;;
62832;SDS011;48891;49.220;6.920;2023-10-19T06:06:24;9.65;;;7.15;;
62832;SDS011;48891;49.220;6.920;2023-10-19T06:08:49;9.15;;;7.55;;
62832;SDS011;48891;49.220;6.920;2023-10-19T06:11:15;8.90;;;7.25;;
62832;SDS011;48891;49.220;6.920;2023-10-19T06:13:40;8.95;;;7.20;;
62832;SDS011;48891;49.220;6.920;2023-10-19T06:16:05;8.90;;;7.22;;
62832;SDS011;48891;49.220;6.920;2023-10-19T06:18:31;8.93;;;7.70;;
62832;SDS011;48891;49.220;6.920;2023-10-19T06:20:56;9.70;;;7.30;;
62832;SDS011;48891;49.220;6.920;2023-10-19T06:23:21;8.05;;;7.20;;
62832;SDS011;48891;49.220;6.920;2023-10-19T06:25:46;9.50;;;7.32;;
62832;SDS011;48891;49.220;6.920;2023-10-19T06:28:12;9.77;;;7.68;;
62832;SDS011;48891;49.220;6.920;2023-10-19T06:30:37;8.32;;;6.78;;
62832;SDS011;48891;49.220;6.920;2023-10-19T06:33:03;8.75;;;6.95;;
62832;SDS011;48891;49.220;6.920;2023-10-19T06:35:29;8.50;;;6.97;;
62832;SDS011;48891;49.220;6.920;2023-10-19T06:37:55;8.90;;;7.30;;
62832;SDS011;48891;49.220;6.920;2023-10-19T06:40:21;9.00;;;7.30;;
62832;SDS011;48891;49.220;6.920;2023-10-19T06:42:46;9.73;;;7.68;;
62832;SDS011;48891;49.220;6.920;2023-10-19T06:45:12;8.27;;;7.38;;
62832;SDS011;48891;49.220;6.920;2023-10-19T06:47:38;9.50;;;7.60;;
62832;SDS011;48891;49.220;6.920;2023-10-19T06:50:04;9.90;;;7.75;;
62832;SDS011;48891;49.220;6.920;2023-10-19T06:52:30;10.02;;;7.90;;
62832;SDS011;48891;49.220;6.920;2023-10-19T06:54:56;9.75;;;8.00;;
62832;SDS011;48891;49.220;6.920;2023-10-19T06:57:21;8.30;;;7.32;;
62832;SDS011;48891;49.220;6.920;2023-10-19T06:59:46;10.77;;;7.72;;
62832;SDS011;48891;49.220;6.920;2023-10-19T07:02:11;9.82;;;7.72;;
62832;SDS011;48891;49.220;6.920;2023-10-19T07:04:37;10.00;;;8.40;;
62832;SDS011;48891;49.220;6.920;2023-10-19T07:07:02;9.02;;;7.35;;
62832;SDS011;48891;49.220;6.920;2023-10-19T07:09:27;9.25;;;7.68;;
62832;SDS011;48891;49.220;6.920;2023-10-19T07:11:52;10.65;;;7.70;;
62832;SDS011;48891;49.220;6.920;2023-10-19T07:14:18;9.98;;;7.68;;
62832;SDS011;48891;49.220;6.920;2023-10-19T07:16:43;10.35;;;7.72;;
62832;SDS011;48891;49.220;6.920;2023-10-19T07:19:08;9.88;;;7.63;;
62832;SDS011;48891;49.220;6.920;2023-10-19T07:21:34;8.73;;;7.63;;
62832;SDS011;48891;49.220;6.920;2023-10-19T07:23:59;9.38;;;7.97;;
62832;SDS011;48891;49.220;6.920;2023-10-19T07:26:24;10.52;;;7.72;;
62832;SDS011;48891;49.220;6.920;2023-10-19T07:28:49;9.50;;;7.78;;
62832;SDS011;48891;49.220;6.920;2023-10-19T07:31:15;9.00;;;7.55;;
62832;SDS011;48891;49.220;6.920;2023-10-19T07:33:40;9.50;;;7.72;;
62832;SDS011;48891;49.220;6.920;2023-10-19T07:36:11;9.50;;;7.55;;
62832;SDS011;48891;49.220;6.920;2023-10-19T07:38:37;9.57;;;7.63;;
62832;SDS011;48891;49.220;6.920;2023-10-19T07:41:02;9.82;;;8.23;;
62832;SDS011;48891;49.220;6.920;2023-10-19T07:43:28;10.43;;;8.60;;
62832;SDS011;48891;49.220;6.920;2023-10-19T07:45:53;8.90;;;7.90;;
62832;SDS011;48891;49.220;6.920;2023-10-19T07:48:18;10.00;;;7.70;;
62832;SDS011;48891;49.220;6.920;2023-10-19T07:50:44;8.98;;;7.47;;
62832;SDS011;48891;49.220;6.920;2023-10-19T07:53:09;9.30;;;7.80;;
62832;SDS011;48891;49.220;6.920;2023-10-19T07:55:35;10.40;;;8.35;;
62832;SDS011;48891;49.220;6.920;2023-10-19T07:58:00;9.90;;;7.75;;
62832;SDS011;48891;49.220;6.920;2023-10-19T08:00:26;9.02;;;7.72;;
62832;SDS011;48891;49.220;6.920;2023-10-19T08:02:52;10.35;;;8.30;;
62832;SDS011;48891;49.220;6.920;2023-10-19T08:05:17;10.55;;;8.50;;
62832;SDS011;48891;49.220;6.920;2023-10-19T08:07:42;9.77;;;8.18;;
62832;SDS011;48891;49.220;6.920;2023-10-19T08:10:08;9.82;;;7.93;;
62832;SDS011;48891;49.220;6.920;2023-10-19T08:12:34;10.07;;;8.10;;
62832;SDS011;48891;49.220;6.920;2023-10-19T08:14:59;9.70;;;7.95;;
62832;SDS011;48891;49.220;6.920;2023-10-19T08:17:25;10.50;;;7.78;;
62832;SDS011;48891;49.220;6.920;2023-10-19T08:19:50;10.30;;;7.88;;
62832;SDS011;48891;49.220;6.920;2023-10-19T08:22:15;9.85;;;7.80;;
62832;SDS011;48891;49.220;6.920;2023-10-19T08:24:41;10.57;;;8.00;;
62832;SDS011;48891;49.220;6.920;2023-10-19T08:27:06;9.55;;;7.68;;
62832;SDS011;48891;49.220;6.920;2023-10-19T08:29:31;11.63;;;8.07;;
62832;SDS011;48891;49.220;6.920;2023-10-19T08:31:57;9.20;;;7.80;;
62832;SDS011;48891;49.220;6.920;2023-10-19T08:34:22;9.63;;;7.68;;
62832;SDS011;48891;49.220;6.920;2023-10-19T08:36:49;11.18;;;8.38;;
62832;SDS011;48891;49.220;6.920;2023-10-19T08:39:14;9.63;;;7.95;;
62832;SDS011;48891;49.220;6.920;2023-10-19T08:41:40;10.13;;;7.78;;
62832;SDS011;48891;49.220;6.920;2023-10-19T08:44:05;9.65;;;8.38;;
62832;SDS011;48891;49.220;6.920;2023-10-19T08:46:32;9.65;;;7.78;;
62832;SDS011;48891;49.220;6.920;2023-10-19T08:48:57;9.63;;;7.50;;
62832;SDS011;48891;49.220;6.920;2023-10-19T08:51:22;9.65;;;7.82;;
62832;SDS011;48891;49.220;6.920;2023-10-19T08:53:48;9.23;;;7.65;;
62832;SDS011;48891;49.220;6.920;2023-10-19T08:56:14;10.45;;;7.50;;
62832;SDS011;48891;49.220;6.920;2023-10-19T08:58:40;9.23;;;7.57;;
62832;SDS011;48891;49.220;6.920;2023-10-19T09:01:06;10.73;;;7.97;;
62832;SDS011;48891;49.220;6.920;2023-10-19T09:03:31;9.93;;;7.35;;
62832;SDS011;48891;49.220;6.920;2023-10-19T09:06:00;9.07;;;7.45;;
62832;SDS011;48891;49.220;6.920;2023-10-19T09:08:27;9.48;;;7.32;;
62832;SDS011;48891;49.220;6.920;2023-10-19T09:10:52;8.88;;;7.40;;
62832;SDS011;48891;49.220;6.920;2023-10-19T09:13:17;9.27;;;7.55;;
62832;SDS011;48891;49.220;6.920;2023-10-19T09:15:43;10.13;;;7.65;;
62832;SDS011;48891;49.220;6.920;2023-10-19T09:18:21;9.70;;;8.43;;
62832;SDS011;48891;49.220;6.920;2023-10-19T09:20:48;9.45;;;7.63;;
62832;SDS011;48891;49.220;6.920;2023-10-19T09:23:15;9.80;;;8.10;;
62832;SDS011;48891;49.220;6.920;2023-10-19T09:25:40;9.15;;;7.30;;
62832;SDS011;48891;49.220;6.920;2023-10-19T09:28:05;10.05;;;7.47;;
62832;SDS011;48891;49.220;6.920;2023-10-19T09:30:30;9.05;;;7.28;;
62832;SDS011;48891;49.220;6.920;2023-10-19T09:32:56;10.20;;;7.40;;
62832;SDS011;48891;49.220;6.920;2023-10-19T09:35:23;9.10;;;7.43;;
62832;SDS011;48891;49.220;6.920;2023-10-19T09:37:49;7.78;;;6.88;;
62832;SDS011;48891;49.220;6.920;2023-10-19T09:40:15;9.75;;;7.60;;
62832;SDS011;48891;49.220;6.920;2023-10-19T09:42:40;9.32;;;7.32;;
62832;SDS011;48891;49.220;6.920;2023-10-19T09:45:08;8.10;;;6.88;;
62832;SDS011;48891;49.220;6.920;2023-10-19T09:47:35;9.18;;;7.40;;
62832;SDS011;48891;49.220;6.920;2023-10-19T09:50:03;10.45;;;7.22;;
62832;SDS011;48891;49.220;6.920;2023-10-19T09:52:29;10.57;;;7.90;;
62832;SDS011;48891;49.220;6.920;2023-10-19T09:54:59;9.55;;;7.65;;
62832;SDS011;48891;49.220;6.920;2023-10-19T10:00:15;9.50;;;7.35;;
62832;SDS011;48891;49.220;6.920;2023-10-19T10:02:44;9.10;;;7.57;;
62832;SDS011;48891;49.220;6.920;2023-10-19T10:10:45;8.77;;;6.80;;
62832;SDS011;48891;49.220;6.920;2023-10-19T10:16:06;9.98;;;7.60;;
62832;SDS011;48891;49.220;6.920;2023-10-19T10:18:31;8.88;;;7.18;;
62832;SDS011;48891;49.220;6.920;2023-10-19T10:21:05;8.05;;;6.45;;
62832;SDS011;48891;49.220;6.920;2023-10-19T10:23:40;8.00;;;6.75;;
62832;SDS011;48891;49.220;6.920;2023-10-19T10:26:05;7.82;;;6.90;;
62832;SDS011;48891;49.220;6.920;2023-10-19T10:28:31;8.02;;;6.60;;
62832;SDS011;48891;49.220;6.920;2023-10-19T10:31:12;8.57;;;6.80;;
62832;SDS011;48891;49.220;6.920;2023-10-19T10:33:57;9.25;;;7.43;;
62832;SDS011;48891;49.220;6.920;2023-10-19T10:36:22;8.45;;;6.93;;
62832;SDS011;48891;49.220;6.920;2023-10-19T10:38:48;8.52;;;7.30;;
62832;SDS011;48891;49.220;6.920;2023-10-19T10:41:24;8.40;;;7.00;;
62832;SDS011;48891;49.220;6.920;2023-10-19T10:43:51;8.77;;;6.60;;
62832;SDS011;48891;49.220;6.920;2023-10-19T10:46:18;8.27;;;6.68;;
62832;SDS011;48891;49.220;6.920;2023-10-19T10:48:44;10.00;;;7.43;;
62832;SDS011;48891;49.220;6.920;2023-10-19T10:51:16;9.13;;;7.25;;
62832;SDS011;48891;49.220;6.920;2023-10-19T10:53:43;9.55;;;7.38;;
62832;SDS011;48891;49.220;6.920;2023-10-19T10:56:08;8.13;;;6.82;;
62832;SDS011;48891;49.220;6.920;2023-10-19T10:58:34;9.93;;;7.38;;
62832;SDS011;48891;49.220;6.920;2023-10-19T11:00:59;8.43;;;6.70;;
62832;SDS011;48891;49.220;6.920;2023-10-19T11:03:24;9.32;;;6.72;;
62832;SDS011;48891;49.220;6.920;2023-10-19T11:05:49;8.40;;;6.97;;
62832;SDS011;48891;49.220;6.920;2023-10-19T11:08:15;8.60;;;6.93;;
62832;SDS011;48891;49.220;6.920;2023-10-19T11:10:41;7.57;;;6.32;;
62832;SDS011;48891;49.220;6.920;2023-10-19T11:13:11;7.72;;;6.47;;
62832;SDS011;48891;49.220;6.920;2023-10-19T11:15:38;7.90;;;6.72;;
62832;SDS011;48891;49.220;6.920;2023-10-19T11:18:11;8.50;;;6.80;;
62832;SDS011;48891;49.220;6.920;2023-10-19T11:20:36;8.48;;;7.03;;
62832;SDS011;48891;49.220;6.920;2023-10-19T11:23:01;8.23;;;7.00;;
62832;SDS011;48891;49.220;6.920;2023-10-19T11:25:27;9.13;;;7.05;;
62832;SDS011;48891;49.220;6.920;2023-10-19T11:28:00;8.05;;;6.65;;
62832;SDS011;48891;49.220;6.920;2023-10-19T11:30:27;7.68;;;6.55;;
62832;SDS011;48891;49.220;6.920;2023-10-19T11:32:55;7.90;;;6.40;;
62832;SDS011;48891;49.220;6.920;2023-10-19T11:35:20;9.02;;;7.40;;
62832;SDS011;48891;49.220;6.920;2023-10-19T11:40:12;8.48;;;6.32;;
62832;SDS011;48891;49.220;6.920;2023-10-19T11:42:37;7.38;;;6.13;;
62832;SDS011;48891;49.220;6.920;2023-10-19T11:45:03;7.57;;;6.28;;
62832;SDS011;48891;49.220;6.920;2023-10-19T11:47:28;7.65;;;6.40;;
62832;SDS011;48891;49.220;6.920;2023-10-19T11:49:53;8.05;;;6.65;;
62832;SDS011;48891;49.220;6.920;2023-10-19T11:52:18;7.13;;;5.82;;
62832;SDS011;48891;49.220;6.920;2023-10-19T11:54:44;7.50;;;6.47;;
62832;SDS011;48891;49.220;6.920;2023-10-19T11:57:09;7.35;;;6.25;;
62832;SDS011;48891;49.220;6.920;2023-10-19T11:59:34;7.85;;;6.20;;
62832;SDS011;48891;49.220;6.920;2023-10-19T12:02:00;7.15;;;6.30;;
62832;SDS011;48891;49.220;6.920;2023-10-19T12:04:25;9.65;;;6.22;;
62832;SDS011;48891;49.220;6.920;2023-10-19T12:06:50;7.97;;;6.40;;
62832;SDS011;48891;49.220;6.920;2023-10-19T12:09:15;7.50;;;6.07;;
62832;SDS011;48891;49.220;6.920;2023-10-19T12:11:41;8.70;;;6.82;;
62832;SDS011;48891;49.220;6.920;2023-10-19T12:14:06;8.43;;;6.68;;
62832;SDS011;48891;49.220;6.920;2023-10-19T12:16:32;8.02;;;5.80;;
62832;SDS011;48891;49.220;6.920;2023-10-19T12:18:57;7.63;;;6.00;;
62832;SDS011;48891;49.220;6.920;2023-10-19T12:21:22;8.48;;;6.93;;
62832;SDS011;48891;49.220;6.920;2023-10-19T12:23:47;7.55;;;6.10;;
62832;SDS011;48891;49.220;6.920;2023-10-19T12:26:13;7.72;;;6.30;;
62832;SDS011;48891;49.220;6.920;2023-10-19T12:28:38;8.80;;;6.68;;
62832;SDS011;48891;49.220;6.920;2023-10-19T12:31:07;7.85;;;6.32;;
62832;SDS011;48891;49.220;6.920;2023-10-19T12:33:33;8.07;;;6.65;;
62832;SDS011;48891;49.220;6.920;2023-10-19T12:35:58;7.85;;;6.70;;
62832;SDS011;48891;49.220;6.920;2023-10-19T12:38:23;7.50;;;5.88;;
62832;SDS011;48891;49.220;6.920;2023-10-19T12:40:49;7.50;;;6.00;;
62832;SDS011;48891;49.220;6.920;2023-10-19T12:43:15;8.27;;;6.57;;
62832;SDS011;48891;49.220;6.920;2023-10-19T12:45:42;7.35;;;6.03;;
62832;SDS011;48891;49.220;6.920;2023-10-19T12:48:07;7.57;;;5.72;;
62832;SDS011;48891;49.220;6.920;2023-10-19T12:50:36;8.13;;;6.57;;
62832;SDS011;48891;49.220;6.920;2023-10-19T12:53:02;6.75;;;5.95;;
62832;SDS011;48891;49.220;6.920;2023-10-19T12:55:27;7.95;;;6.53;;
62832;SDS011;48891;49.220;6.920;2023-10-19T12:57:53;7.40;;;5.90;;
62832;SDS011;48891;49.220;6.920;2023-10-19T13:00:19;8.32;;;6.55;;
62832;SDS011;48891;49.220;6.920;2023-10-19T13:02:44;6.35;;;5.32;;
62832;SDS011;48891;49.220;6.920;2023-10-19T13:05:09;7.25;;;5.90;;
62832;SDS011;48891;49.220;6.920;2023-10-19T13:07:34;7.38;;;6.22;;
62832;SDS011;48891;49.220;6.920;2023-10-19T13:10:00;8.27;;;6.53;;
62832;SDS011;48891;49.220;6.920;2023-10-19T13:12:25;7.22;;;5.50;;
62832;SDS011;48891;49.220;6.920;2023-10-19T13:14:50;7.75;;;5.88;;
62832;SDS011;48891;49.220;6.920;2023-10-19T13:17:15;7.20;;;5.80;;
62832;SDS011;48891;49.220;6.920;2023-10-19T13:19:41;7.00;;;6.00;;
62832;SDS011;48891;49.220;6.920;2023-10-19T13:22:06;7.00;;;5.93;;
62832;SDS011;48891;49.220;6.920;2023-10-19T13:24:31;7.57;;;6.00;;
62832;SDS011;48891;49.220;6.920;2023-10-19T13:26:56;7.38;;;6.18;;
62832;SDS011;48891;49.220;6.920;2023-10-19T13:29:22;7.72;;;5.90;;
62832;SDS011;48891;49.220;6.920;2023-10-19T13:31:47;6.95;;;5.80;;
62832;SDS011;48891;49.220;6.920;2023-10-19T13:34:12;7.60;;;6.00;;
62832;SDS011;48891;49.220;6.920;2023-10-19T13:36:37;7.43;;;6.30;;
62832;SDS011;48891;49.220;6.920;2023-10-19T13:39:03;7.05;;;5.70;;
62832;SDS011;48891;49.220;6.920;2023-10-19T13:41:28;7.20;;;5.78;;
62832;SDS011;48891;49.220;6.920;2023-10-19T13:43:54;7.35;;;5.57;;
62832;SDS011;48891;49.220;6.920;2023-10-19T13:46:19;7.03;;;5.63;;
62832;SDS011;48891;49.220;6.920;2023-10-19T13:48:44;6.38;;;5.47;;
62832;SDS011;48891;49.220;6.920;2023-10-19T13:51:09;6.72;;;5.53;;
62832;SDS011;48891;49.220;6.920;2023-10-19T13:53:34;7.35;;;6.13;;
62832;SDS011;48891;49.220;6.920;2023-10-19T13:56:00;6.72;;;5.60;;
62832;SDS011;48891;49.220;6.920;2023-10-19T13:58:25;7.20;;;5.57;;
62832;SDS011;48891;49.220;6.920;2023-10-19T14:00:50;6.85;;;5.68;;
62832;SDS011;48891;49.220;6.920;2023-10-19T14:03:15;7.03;;;5.35;;
62832;SDS011;48891;49.220;6.920;2023-10-19T14:05:42;6.80;;;5.65;;
62832;SDS011;48891;49.220;6.920;2023-10-19T14:08:09;7.03;;;5.50;;
62832;SDS011;48891;49.220;6.920;2023-10-19T14:10:34;8.07;;;6.07;;
62832;SDS011;48891;49.220;6.920;2023-10-19T14:13:00;6.53;;;5.68;;
62832;SDS011;48891;49.220;6.920;2023-10-19T14:15:26;6.63;;;5.75;;
62832;SDS011;48891;49.220;6.920;2023-10-19T14:17:52;6.53;;;5.38;;
62832;SDS011;48891;49.220;6.920;2023-10-19T14:20:17;7.03;;;5.15;;
62832;SDS011;48891;49.220;6.920;2023-10-19T14:22:43;6.55;;;5.07;;
62832;SDS011;48891;49.220;6.920;2023-10-19T14:25:10;6.93;;;5.72;;
62832;SDS011;48891;49.220;6.920;2023-10-19T14:27:36;7.85;;;5.90;;
62832;SDS011;48891;49.220;6.920;2023-10-19T14:30:01;7.80;;;5.88;;
62832;SDS011;48891;49.220;6.920;2023-10-19T14:32:27;7.38;;;5.63;;
62832;SDS011;48891;49.220;6.920;2023-10-19T14:34:52;6.72;;;5.68;;
62832;SDS011;48891;49.220;6.920;2023-10-19T14:37:17;7.00;;;5.20;;
62832;SDS011;48891;49.220;6.920;2023-10-19T14:39:43;7.50;;;5.50;;
62832;SDS011;48891;49.220;6.920;2023-10-19T14:42:08;7.18;;;5.65;;
62832;SDS011;48891;49.220;6.920;2023-10-19T14:44:33;6.43;;;4.97;;
62832;SDS011;48891;49.220;6.920;2023-10-19T14:46:58;6.05;;;5.18;;
62832;SDS011;48891;49.220;6.920;2023-10-19T14:49:24;6.95;;;5.50;;
62832;SDS011;48891;49.220;6.920;2023-10-19T14:51:49;5.97;;;5.07;;